• Join FlightAware (Why Join?)
  • Login
  • US Flag 
12:16AM EST


 

Airport Tracker/Info


-or-


 

Live Flight TrackerFlight Track Log ✈ GGN7301 ✈ 16-Jun-2014 ✈ KBDL - CYUL

Flight Track Log - Related Links

Times and Time Zones

All times are in EDT time to prevent confusion due to time zone crossing. See the GGN7301 flight status page for this flight to view local times or setup timezone preferences in your user account.

Time Position Orientation Groundspeed Altitude Reporting Facility
EDT Latitude Longitude Course Direction KTS MPH feet Rate Location/Type
07:41AM 41.9461 -72.6997 323° Northwest 142 163 800  Level Boston Center
07:42AM 41.9764 -72.7308 323° Northwest 153 176 2,300 1,680 Climbing Boston Center
07:42AM 41.9883 -72.7394 332° Northwest 154 177 2,900 1,902 Climbing Boston Center
07:43AM 42.0267 -72.7647 334° Northwest 154 177 4,900 1,835 Climbing Boston Center
07:44AM 42.0642 -72.7881 335° Northwest 153 176 6,600 1,884 Climbing Boston Center
07:45AM 42.1042 -72.8164 332° Northwest 152 175 8,700 1,790 Climbing Boston Center
07:46AM 42.1425 -72.8392 336° Northwest 152 175 10,300 1,403 Climbing Boston Center
07:47AM 42.1797 -72.8700 328° Northwest 153 176 11,600 1,377 Climbing Boston Center
07:48AM 42.2261 -72.8789 352° North 166 191 13,100 1,525 Climbing Boston Center
07:49AM 42.2764 -72.8900 351° North 167 192 14,700 1,415 Climbing Boston Center
07:50AM 42.3236 -72.9050 347° North 171 197 16,000 1,220 Climbing Boston Center
07:51AM 42.3733 -72.9178 349° North 179 206 17,200 1,091 Climbing Boston Center
07:52AM 42.4278 -72.9283 352° North 183 211 18,200 984 Climbing Boston Center
07:53AM 42.4767 -72.9422 348° North 186 214 19,200 836 Climbing Boston Center
07:54AM 42.5294 -72.9581 348° North 192 221 19,900 387 Climbing Boston Center
07:55AM 42.5894 -72.9717 351° North 211 243 20,000 49 Climbing Boston Center
07:56AM 42.6564 -72.9900 349° North 237 273 20,000  Level Boston Center
07:57AM 42.7203 -73.0075 349° North 245 282 20,000  Level Boston Center
07:58AM 42.8036 -73.0297 349° North 250 288 20,000  Level Boston Center
07:59AM 42.8728 -73.0469 350° North 253 291 20,000  Level Boston Center
08:00AM 42.9428 -73.0606 352° North 254 292 20,000  Level Boston Center
08:01AM 43.0106 -73.0800 348° North 253 291 20,000  Level Boston Center
08:02AM 43.0742 -73.0972 349° North 236 272 20,000 -50 Level Boston Center
08:03AM 43.1367 -73.1119 350° North 233 268 19,900  Descending Boston Center
08:04AM 43.2003 -73.1275 350° North 233 268 20,000 48 Climbing Boston Center
08:05AM 43.2619 -73.1444 349° North 227 261 20,000  Level Boston Center
08:06AM 43.3250 -73.1597 350° North 228 262 20,000  Level Boston Center
08:07AM 43.3875 -73.1767 349° North 228 262 20,000 -50 Level Boston Center
08:08AM 43.4575 -73.1964 348° North 228 262 19,900 -50 Descending Boston Center
08:09AM 43.5211 -73.2108 351° North 230 265 19,900  Level Boston Center
08:10AM 43.5850 -73.2272 349° North 231 266 19,900 48 Level Boston Center
08:11AM 43.6486 -73.2422 350° North 231 266 20,000 49 Climbing Boston Center
08:12AM 43.7100 -73.2614 347° North 230 265 20,000  Level Boston Center
08:13AM 43.7728 -73.2786 349° North 230 265 20,000  Level Boston Center
08:14AM 43.8356 -73.2942 350° North 230 265 20,000 -48 Level Boston Center
08:16AM 43.9114 -73.3136 350° North 230 265 19,900  Descending Boston Center
08:17AM 43.9750 -73.3308 349° North 230 265 20,000 50 Climbing Boston Center
08:18AM 44.0389 -73.3453 351° North 232 267 20,000  Level Boston Center
08:19AM 44.1019 -73.3650 347° North 232 267 20,000 -49 Level Boston Center
08:20AM 44.1658 -73.3808 350° North 232 267 19,900 -50 Descending Boston Center
08:21AM 44.2289 -73.3975 349° North 232 267 19,900 49 Level Boston Center
08:22AM 44.2928 -73.4172 348° North 233 268 20,000 49 Climbing Boston Center
08:23AM 44.3575 -73.4319 351° North 233 268 20,000 -48 Level Boston Center
08:24AM 44.4211 -73.4492 349° North 233 268 19,900 -48 Descending Boston Center
08:25AM 44.4850 -73.4678 348° North 233 268 19,900  Level Boston Center
08:26AM 44.5472 -73.4886 347° North 232 267 19,900 -248 Level Boston Center
08:27AM 44.6272 -73.5033 353° North 239 275 19,400 -843 Descending Boston Center
08:28AM 44.6964 -73.5278 346° North 251 289 18,200 -1,210 Descending Boston Center
08:29AM 44.7597 -73.5764 331° Northwest 258 297 16,900 -1,403 Descending Boston Center
08:30AM 44.8211 -73.6231 332° Northwest 254 292 15,300 -1,686 Descending Boston Center
08:31AM 44.8850 -73.6619 337° Northwest 253 291 13,500 -1,736 Descending Boston Center
08:32AM 44.9442 -73.7144 328° Northwest 251 289 11,800 -1,200 Descending Boston Center
08:33AM 45.0167 -73.7667 333° Northwest 220 253 10,700 -906 Descending Montreal Center
08:34AM 45.0667 -73.7833 347° North 220 253 9,700 -950 Descending Montreal Center
08:35AM 45.1167 -73.8333 325° Northwest 220 253 8,800 -1,000 Descending Montreal Center
08:36AM 45.1833 -73.8500 350° North 220 253 7,700 -1,350 Descending Montreal Center
08:37AM 45.2333 -73.8667 347° North 220 253 6,100 -1,650 Descending Montreal Center
08:38AM 45.3000 -73.9000 341° North 240 276 4,400 -1,650 Descending Montreal Center
08:39AM 45.3500 -73.9000 360° North 190 219 2,800 -1,300 Descending Montreal Center
08:40AM 45.3833 -73.8500 46° Northeast 170 196 1,800 -1,000 Descending Montreal Center
08:41AM 45.4167 -73.8000 46° Northeast 160 184 800 -850 Descending Montreal Center
08:42AM 45.4500 -73.7500 46° Northeast 130 150 100 -350 Descending Montreal Center
08:43AM 45.4667 -73.7500 360° North 70 81 100  Level Montreal Center